Terminal Aerodrome Forecast
Issued by NWS Albany, NY

Home | Current Version | Previous Version | Text Only | Print | Product List | Glossary On
Versions: 1 2 3 4 5 6 7 8 9 10 11 12 13 14 15 16 17 18 19 20 21 22
000
FTUS41 KALY 021313 AAA
TAFGFL
TAF AMD
KGFL 021313Z 0213/0312 00000KT 3/4SM BR VV002
      TEMPO 0213/0214 4SM BR SCT002
     FM021400 17005KT P6SM FEW040
     FM030000 VRB02KT 6SM BR SKC
     FM030500 00000KT 3SM BR FEW002=

USA.gov is the U.S. government's official web portal to all federal, state and local government web resources and services.